createdAt,value
2022-12-01T00:01:10.283Z,94256.38
2022-12-01T00:03:37.352Z,94257.63
2022-12-01T00:06:09.641Z,94247.81
2022-12-01T00:08:36.395Z,94238.78
2022-12-01T00:11:08.462Z,94240.44
2022-12-01T00:13:35.746Z,94249.72
2022-12-01T00:16:22.624Z,94252.81
2022-12-01T00:18:51.079Z,94248.59
2022-12-01T00:21:20.350Z,94250.66
2022-12-01T00:23:49.039Z,94244.44
2022-12-01T00:26:17.095Z,94254.94
2022-12-01T00:28:43.909Z,94258.28
2022-12-01T00:31:12.126Z,94260.16
2022-12-01T00:33:39.324Z,94264.28
2022-12-01T00:36:06.639Z,94254.38
2022-12-01T00:38:34.376Z,94255.31
2022-12-01T00:41:01.249Z,94255.56
2022-12-01T00:43:30.689Z,94240.22
2022-12-01T00:45:57.496Z,94250.31
2022-12-01T00:48:24.504Z,94238.25
2022-12-01T00:50:55.047Z,94233.47
2022-12-01T00:53:22.048Z,94238.91
2022-12-01T00:55:48.707Z,94241.50
2022-12-01T00:58:15.334Z,94250.84
2022-12-01T01:00:43.031Z,94234.25
2022-12-01T01:03:10.480Z,94242.28
2022-12-01T01:05:39.684Z,94239.53
2022-12-01T01:08:08.577Z,94250.56
2022-12-01T01:10:42.747Z,94234.28
2022-12-01T01:13:10.356Z,94242.44
2022-12-01T01:15:37.669Z,94230.59
2022-12-01T01:18:04.983Z,94232.63
2022-12-01T01:20:32.298Z,94227.94
2022-12-01T01:22:59.145Z,94221.97
2022-12-01T01:25:25.784Z,94214.44
2022-12-01T01:27:52.337Z,94208.94
2022-12-01T01:30:19.270Z,94213.31
2022-12-01T01:32:45.935Z,94208.34
2022-12-01T01:35:12.640Z,94201.28
2022-12-01T01:37:39.275Z,94204.38
2022-12-01T01:40:06.835Z,94203.00
2022-12-01T01:42:33.467Z,94198.28
2022-12-01T01:45:00.177Z,94193.56
2022-12-01T01:47:32.408Z,94191.69
2022-12-01T01:50:06.323Z,94187.44
2022-12-01T01:52:38.876Z,94187.91
2022-12-01T01:55:06.127Z,94193.34
2022-12-01T01:57:34.107Z,94179.81
2022-12-01T02:00:20.582Z,94188.69
2022-12-01T02:02:50.537Z,94176.22
2022-12-01T02:05:29.914Z,94189.00
2022-12-01T02:07:59.425Z,94179.31
2022-12-01T02:10:43.345Z,94178.88
2022-12-01T02:13:25.952Z,94176.84
2022-12-01T02:15:58.765Z,94179.03
2022-12-01T02:19:03.058Z,94176.38
2022-12-01T02:21:35.415Z,94184.16
2022-12-01T02:24:34.451Z,94171.34
2022-12-01T02:27:19.795Z,94165.44
2022-12-01T02:30:05.143Z,94179.00
2022-12-01T02:32:56.454Z,94165.25
2022-12-01T02:35:46.407Z,94159.66
2022-12-01T02:38:43.307Z,94165.94
2022-12-01T02:41:16.814Z,94168.06
2022-12-01T02:44:11.510Z,94173.84
2022-12-01T02:47:02.978Z,94165.78
2022-12-01T02:49:35.483Z,94184.78
2022-12-01T02:52:06.240Z,94180.59
2022-12-01T02:54:34.501Z,94184.03
2022-12-01T02:57:01.052Z,94189.16
2022-12-01T02:59:27.811Z,94180.75
2022-12-01T03:02:10.458Z,94188.53
2022-12-01T03:04:37.027Z,94188.53
2022-12-01T03:07:41.887Z,94183.75
2022-12-01T03:10:27.089Z,94186.97
2022-12-01T03:13:03.513Z,94185.75
2022-12-01T03:15:44.703Z,94177.00
2022-12-01T03:18:24.528Z,94177.13
2022-12-01T03:21:29.125Z,94177.34
2022-12-01T03:24:01.794Z,94174.34
2022-12-01T03:26:32.682Z,94174.34
2022-12-01T03:29:06.377Z,94161.25
2022-12-01T03:31:40.895Z,94164.53
2022-12-01T03:34:18.051Z,94163.28
2022-12-01T03:36:50.334Z,94157.03
2022-12-01T03:39:22.831Z,94170.00
2022-12-01T03:42:03.275Z,94157.97
2022-12-01T03:44:36.864Z,94158.94
2022-12-01T03:47:12.302Z,94152.53
2022-12-01T03:49:40.158Z,94163.25
2022-12-01T03:52:29.021Z,94162.00
2022-12-01T03:55:08.883Z,94177.06
2022-12-01T03:57:42.673Z,94165.91
2022-12-01T04:00:11.574Z,94174.16
2022-12-01T04:02:38.477Z,94180.81
2022-12-01T04:05:06.635Z,94173.84
2022-12-01T04:07:33.267Z,94184.56
2022-12-01T04:09:59.877Z,94172.91
2022-12-01T04:12:35.176Z,94169.97
2022-12-01T04:15:11.153Z,94187.94
2022-12-01T04:17:43.561Z,94178.84
2022-12-01T04:20:13.602Z,94184.63
2022-12-01T04:22:40.484Z,94191.09
2022-12-01T04:25:08.152Z,94198.34
2022-12-01T04:27:35.288Z,94200.22
2022-12-01T04:30:02.287Z,94194.75
2022-12-01T04:32:28.938Z,94198.34
2022-12-01T04:34:55.573Z,94196.00
2022-12-01T04:37:22.320Z,94189.28
2022-12-01T04:39:49.277Z,94202.72
2022-12-01T04:42:16.185Z,94194.78
2022-12-01T04:44:42.822Z,94200.25
2022-12-01T04:47:09.615Z,94202.09
2022-12-01T04:49:37.371Z,94191.34
2022-12-01T04:52:04.181Z,94204.72
2022-12-01T04:54:31.086Z,94209.16
2022-12-01T04:56:57.751Z,94203.97
2022-12-01T04:59:24.329Z,94213.66
2022-12-01T05:01:51.018Z,94215.53
2022-12-01T05:04:17.722Z,94213.03
2022-12-01T05:06:44.420Z,94211.63
2022-12-01T05:09:17.483Z,94216.66
2022-12-01T05:11:45.076Z,94208.94
2022-12-01T05:14:11.651Z,94207.31
2022-12-01T05:16:38.377Z,94211.13
2022-12-01T05:19:24.900Z,94207.94
2022-12-01T05:21:52.455Z,94210.00
2022-12-01T05:24:21.056Z,94203.63
2022-12-01T05:26:47.948Z,94210.50
2022-12-01T05:29:15.082Z,94211.56
2022-12-01T05:31:41.785Z,94213.03
2022-12-01T05:34:08.893Z,94215.53
2022-12-01T05:36:36.453Z,94211.59
2022-12-01T05:39:04.067Z,94208.69
2022-12-01T05:41:30.914Z,94214.47
2022-12-01T05:43:57.670Z,94223.50
2022-12-01T05:46:24.473Z,94229.56
2022-12-01T05:48:51.220Z,94227.22
2022-12-01T05:51:18.113Z,94223.25
2022-12-01T05:53:45.207Z,94225.91
2022-12-01T05:56:12.134Z,94227.97
2022-12-01T05:58:38.882Z,94232.19
2022-12-01T06:01:05.781Z,94228.66
2022-12-01T06:03:32.424Z,94228.72
2022-12-01T06:05:59.088Z,94223.84
2022-12-01T06:08:25.765Z,94236.59
2022-12-01T06:10:52.487Z,94232.81
2022-12-01T06:13:19.105Z,94225.91
2022-12-01T06:15:45.736Z,94225.84
2022-12-01T06:18:12.397Z,94233.75
2022-12-01T06:20:39.295Z,94233.63
2022-12-01T06:23:05.936Z,94234.97
2022-12-01T06:25:32.568Z,94234.88
2022-12-01T06:27:59.622Z,94238.78
2022-12-01T06:30:26.668Z,94226.88
2022-12-01T06:32:53.530Z,94234.38
2022-12-01T06:35:20.476Z,94218.00
2022-12-01T06:37:47.090Z,94228.44
2022-12-01T06:40:14.000Z,94207.34
2022-12-01T06:42:40.622Z,94216.75
2022-12-01T06:45:07.607Z,94224.41
2022-12-01T06:47:34.819Z,94234.22
2022-12-01T06:50:01.448Z,94227.25
2022-12-01T06:52:28.287Z,94227.13
2022-12-01T06:54:54.880Z,94229.56
2022-12-01T06:57:21.867Z,94232.09
2022-12-01T06:59:49.063Z,94232.94
2022-12-01T07:02:17.020Z,94236.91
2022-12-01T07:04:43.808Z,94220.41
2022-12-01T07:07:12.064Z,94227.19
2022-12-01T07:09:39.466Z,94237.91
2022-12-01T07:12:06.684Z,94239.47
2022-12-01T07:14:33.383Z,94230.84
2022-12-01T07:17:00.233Z,94229.25
2022-12-01T07:19:27.470Z,94230.59
2022-12-01T07:21:54.064Z,94239.91
2022-12-01T07:24:20.731Z,94227.94
2022-12-01T07:26:48.193Z,94234.56
2022-12-01T07:29:15.020Z,94232.59
2022-12-01T07:31:41.668Z,94232.69
2022-12-01T07:34:12.774Z,94236.97
2022-12-01T07:36:39.545Z,94232.31
2022-12-01T07:39:07.629Z,94233.06
2022-12-01T07:41:35.550Z,94238.88
2022-12-01T07:44:02.890Z,94239.69
2022-12-01T07:46:29.655Z,94232.56
2022-12-01T07:48:56.832Z,94233.72
2022-12-01T07:51:24.998Z,94224.88
2022-12-01T07:53:52.630Z,94229.09
2022-12-01T07:56:20.423Z,94236.59
2022-12-01T07:58:47.105Z,94228.09
2022-12-01T08:01:16.438Z,94229.34
2022-12-01T08:03:43.753Z,94243.22
2022-12-01T08:06:11.504Z,94231.53
2022-12-01T08:08:39.795Z,94223.03
2022-12-01T08:11:10.462Z,94229.41
2022-12-01T08:13:37.496Z,94227.84
2022-12-01T08:16:05.422Z,94234.94
2022-12-01T08:18:37.963Z,94223.41
2022-12-01T08:21:05.907Z,94227.63
2022-12-01T08:23:32.850Z,94231.94
2022-12-01T08:26:04.469Z,94224.06
2022-12-01T08:28:31.143Z,94230.63
2022-12-01T08:30:57.935Z,94223.56
2022-12-01T08:33:24.681Z,94233.25
2022-12-01T08:35:51.355Z,94237.66
2022-12-01T08:38:18.081Z,94239.13
2022-12-01T08:40:44.739Z,94225.44
2022-12-01T08:43:23.141Z,94238.56
2022-12-01T08:45:59.905Z,94238.44
2022-12-01T08:48:29.917Z,94220.91
2022-12-01T08:51:03.824Z,94220.41
2022-12-01T08:53:31.278Z,94222.56
2022-12-01T08:56:07.111Z,94228.78
2022-12-01T08:58:34.193Z,94223.91
2022-12-01T09:01:03.189Z,94219.81
2022-12-01T09:03:30.788Z,94235.03
2022-12-01T09:06:06.444Z,94221.84
2022-12-01T09:08:34.991Z,94209.41
2022-12-01T09:11:05.477Z,94217.56
2022-12-01T09:13:34.203Z,94215.56
2022-12-01T09:16:06.637Z,94209.09
2022-12-01T09:18:33.784Z,94208.88
2022-12-01T09:21:00.566Z,94208.00
2022-12-01T09:23:27.493Z,94203.72
2022-12-01T09:25:54.202Z,94208.50
2022-12-01T09:28:21.057Z,94201.13
2022-12-01T09:30:47.704Z,94205.19
2022-12-01T09:33:14.318Z,94209.44
2022-12-01T09:35:41.148Z,94214.38
2022-12-01T09:38:07.951Z,94194.72
2022-12-01T09:40:40.410Z,94195.25
2022-12-01T09:43:16.663Z,94195.56
2022-12-01T09:45:48.448Z,94209.25
2022-12-01T09:48:27.762Z,94208.25
2022-12-01T09:50:55.340Z,94203.59
2022-12-01T09:53:25.623Z,94209.94
2022-12-01T09:55:53.173Z,94201.09
2022-12-01T09:58:30.905Z,94200.88
2022-12-01T10:00:58.359Z,94205.81
2022-12-01T10:03:46.530Z,94209.91
2022-12-01T10:06:32.299Z,94201.75
2022-12-01T10:09:27.455Z,94198.53
2022-12-01T10:12:04.510Z,94198.84
2022-12-01T10:14:37.414Z,94197.44
2022-12-01T10:17:16.654Z,94187.25
2022-12-01T10:19:49.968Z,94193.41
2022-12-01T10:22:29.380Z,94197.22
2022-12-01T10:25:28.345Z,94204.13
2022-12-01T10:28:13.696Z,94197.88
2022-12-01T10:30:50.588Z,94196.16
2022-12-01T10:33:26.289Z,94193.19
2022-12-01T10:35:53.812Z,94192.88
2022-12-01T10:38:30.600Z,94195.66
2022-12-01T10:41:01.026Z,94194.88
2022-12-01T10:43:50.614Z,94196.88
2022-12-01T10:46:42.112Z,94198.28
2022-12-01T10:49:14.312Z,94194.56
2022-12-01T10:51:52.512Z,94193.19
2022-12-01T10:54:19.966Z,94197.72
2022-12-01T10:56:49.107Z,94198.19
2022-12-01T10:59:24.452Z,94183.41
2022-12-01T11:01:51.447Z,94189.91
2022-12-01T11:04:25.767Z,94190.97
2022-12-01T11:06:52.464Z,94190.84
2022-12-01T11:09:28.086Z,94187.78
2022-12-01T11:11:56.545Z,94186.63
2022-12-01T11:14:43.505Z,94181.22
2022-12-01T11:17:29.608Z,94181.88
2022-12-01T11:19:56.554Z,94182.16
2022-12-01T11:22:26.458Z,94177.03
2022-12-01T11:24:53.014Z,94180.38
2022-12-01T11:27:26.033Z,94182.59
2022-12-01T11:29:57.217Z,94182.91
2022-12-01T11:32:27.015Z,94175.09
2022-12-01T11:34:58.487Z,94180.78
2022-12-01T11:37:32.470Z,94181.00
2022-12-01T11:40:17.643Z,94181.50
2022-12-01T11:42:50.634Z,94181.53
2022-12-01T11:45:40.250Z,94180.25
2022-12-01T11:48:07.049Z,94171.22
2022-12-01T11:50:37.121Z,94173.56
2022-12-01T11:53:04.652Z,94174.00
2022-12-01T11:55:32.045Z,94170.91
2022-12-01T11:58:04.218Z,94177.28
2022-12-01T12:01:05.623Z,94174.66
2022-12-01T12:03:55.571Z,94178.25
2022-12-01T12:06:40.969Z,94186.38
2022-12-01T12:09:13.579Z,94184.63
2022-12-01T12:12:18.474Z,94177.63
2022-12-01T12:14:53.482Z,94181.97
2022-12-01T12:17:46.887Z,94180.28
2022-12-01T12:20:31.335Z,94181.03
2022-12-01T12:23:18.914Z,94183.25
2022-12-01T12:25:52.361Z,94188.53
2022-12-01T12:28:37.609Z,94190.25
2022-12-01T12:31:33.532Z,94191.66
2022-12-01T12:34:02.672Z,94184.47
2022-12-01T12:36:39.209Z,94190.97
2022-12-01T12:39:26.989Z,94193.22
2022-12-01T12:41:55.908Z,94193.84
2022-12-01T12:44:57.319Z,94202.25
2022-12-01T12:48:05.755Z,94198.38
2022-12-01T12:50:44.905Z,94210.66
2022-12-01T12:53:21.141Z,94206.06
2022-12-01T12:56:02.310Z,94207.38
2022-12-01T12:58:40.105Z,94204.94
2022-12-01T13:01:15.995Z,94213.03
2022-12-01T13:04:00.631Z,94200.69
2022-12-01T13:06:41.963Z,94206.94
2022-12-01T13:09:15.402Z,94204.44
2022-12-01T13:11:45.400Z,94202.03
2022-12-01T13:14:29.607Z,94204.34
2022-12-01T13:17:04.481Z,94206.34
2022-12-01T13:19:35.926Z,94199.53
2022-12-01T13:22:04.578Z,94196.16
2022-12-01T13:24:31.553Z,94207.09
2022-12-01T13:27:04.873Z,94210.34
2022-12-01T13:29:44.052Z,94201.59
2022-12-01T13:32:47.388Z,94206.63
2022-12-01T13:35:33.668Z,94207.09
2022-12-01T13:38:34.003Z,94214.25
2022-12-01T13:41:23.948Z,94225.75
2022-12-01T13:43:56.498Z,94214.72
2022-12-01T13:46:27.261Z,94221.16
2022-12-01T13:48:57.054Z,94222.38
2022-12-01T13:51:25.646Z,94213.78
2022-12-01T13:54:29.177Z,94219.44
2022-12-01T13:57:03.090Z,94220.16
2022-12-01T13:59:41.177Z,94224.75
2022-12-01T14:02:19.843Z,94221.75
2022-12-01T14:04:47.429Z,94215.69
2022-12-01T14:07:21.710Z,94211.75
2022-12-01T14:09:51.595Z,94232.94
2022-12-01T14:12:22.388Z,94221.53
2022-12-01T14:14:59.712Z,94227.19
2022-12-01T14:17:29.517Z,94222.25
2022-12-01T14:20:05.090Z,94225.97
2022-12-01T14:22:37.255Z,94214.91
2022-12-01T14:25:25.707Z,94222.50
2022-12-01T14:27:56.073Z,94221.25
2022-12-01T14:30:41.060Z,94220.06
2022-12-01T14:33:41.649Z,94225.69
2022-12-01T14:36:21.891Z,94228.53
2022-12-01T14:38:52.549Z,94226.97
2022-12-01T14:41:30.691Z,94237.66
2022-12-01T14:44:12.498Z,94238.84
2022-12-01T14:46:42.220Z,94245.75
2022-12-01T14:49:20.249Z,94235.06
2022-12-01T14:51:52.656Z,94238.97
2022-12-01T14:54:27.564Z,94242.13
2022-12-01T14:57:02.718Z,94256.19
2022-12-01T14:59:32.439Z,94251.19
2022-12-01T15:02:09.523Z,94252.25
2022-12-01T15:05:06.343Z,94250.38
2022-12-01T15:07:45.676Z,94249.56
2022-12-01T15:10:39.338Z,94246.78
2022-12-01T15:13:27.958Z,94243.59
2022-12-01T15:16:04.563Z,94240.81
2022-12-01T15:18:33.486Z,94232.06
2022-12-01T15:21:06.194Z,94229.91
2022-12-01T15:23:32.912Z,94233.69
2022-12-01T15:25:59.679Z,94241.91
2022-12-01T15:28:34.977Z,94249.66
2022-12-01T15:31:10.236Z,94251.28
2022-12-01T15:33:39.054Z,94250.84
2022-12-01T15:36:07.602Z,94252.41
2022-12-01T15:38:38.430Z,94250.31
2022-12-01T15:41:28.540Z,94244.06
2022-12-01T15:44:00.715Z,94254.22
2022-12-01T15:46:34.993Z,94257.09
2022-12-01T15:49:18.145Z,94254.38
2022-12-01T15:51:45.385Z,94255.31
2022-12-01T15:54:21.310Z,94252.66
2022-12-01T15:56:53.266Z,94262.09
2022-12-01T15:59:41.495Z,94251.50
2022-12-01T16:02:32.017Z,94252.66
2022-12-01T16:05:17.520Z,94253.22
2022-12-01T16:10:36.440Z,94261.69
2022-12-01T16:13:41.901Z,94260.94
2022-12-01T16:16:30.152Z,94263.56
2022-12-01T16:19:11.801Z,94275.28
2022-12-01T16:21:50.687Z,94260.44
2022-12-01T16:24:27.604Z,94267.44
2022-12-01T16:27:04.850Z,94276.81
2022-12-01T16:29:49.995Z,94266.84
2022-12-01T16:32:41.741Z,94271.47
2022-12-01T16:35:25.233Z,94273.72
2022-12-01T16:37:52.264Z,94271.78
2022-12-01T16:40:19.263Z,94266.38
2022-12-01T16:42:46.431Z,94263.22
2022-12-01T16:45:14.950Z,94272.00
2022-12-01T16:47:42.844Z,94274.66
2022-12-01T16:50:14.384Z,94281.69
2022-12-01T16:52:45.036Z,94266.78
2022-12-01T16:55:49.702Z,94283.25
2022-12-01T16:58:16.536Z,94276.94
2022-12-01T17:00:43.400Z,94285.00
2022-12-01T17:03:15.958Z,94277.63
2022-12-01T17:05:42.933Z,94279.22
2022-12-01T17:08:09.649Z,94279.88
2022-12-01T17:10:40.692Z,94278.00
2022-12-01T17:13:07.498Z,94280.88
2022-12-01T17:15:34.326Z,94282.91
2022-12-01T17:18:01.220Z,94289.00
2022-12-01T17:20:27.979Z,94284.78
2022-12-01T17:22:54.542Z,94282.91
2022-12-01T17:25:21.158Z,94283.50
2022-12-01T17:27:47.795Z,94280.09
2022-12-01T17:30:14.535Z,94300.84
2022-12-01T17:32:41.201Z,94291.81
2022-12-01T17:35:08.677Z,94295.25
2022-12-01T17:37:37.006Z,94292.91
2022-12-01T17:40:05.836Z,94290.25
2022-12-01T17:42:33.957Z,94293.69
2022-12-01T17:45:00.848Z,94296.31
2022-12-01T17:47:28.156Z,94301.38
2022-12-01T17:49:54.836Z,94296.00
2022-12-01T17:52:26.713Z,94286.81
2022-12-01T17:54:55.363Z,94297.09
2022-12-01T17:57:22.514Z,94290.59
2022-12-01T17:59:49.152Z,94303.50
2022-12-01T18:02:15.885Z,94289.00
2022-12-01T18:04:42.611Z,94298.19
2022-12-01T18:07:09.304Z,94301.47
2022-12-01T18:09:36.147Z,94296.47
2022-12-01T18:12:03.079Z,94288.34
2022-12-01T18:14:29.875Z,94295.84
2022-12-01T18:16:56.668Z,94302.03
2022-12-01T18:19:23.268Z,94301.97
2022-12-01T18:21:50.728Z,94300.94
2022-12-01T18:24:17.338Z,94294.50
2022-12-01T18:26:44.192Z,94300.41
2022-12-01T18:29:16.246Z,94301.06
2022-12-01T18:31:47.991Z,94294.91
2022-12-01T18:34:14.660Z,94303.72
2022-12-01T18:36:41.753Z,94302.56
2022-12-01T18:39:09.784Z,94308.81
2022-12-01T18:41:37.438Z,94315.00
2022-12-01T18:44:05.093Z,94316.97
2022-12-01T18:46:31.978Z,94317.06
2022-12-01T18:49:02.147Z,94324.59
2022-12-01T18:51:32.110Z,94316.16
2022-12-01T18:54:00.386Z,94322.53
2022-12-01T18:56:27.256Z,94327.56
2022-12-01T18:58:58.957Z,94321.44
2022-12-01T19:01:36.152Z,94331.75
2022-12-01T19:04:04.100Z,94321.16
2022-12-01T19:06:32.673Z,94328.00
2022-12-01T19:09:01.524Z,94336.28
2022-12-01T19:11:29.150Z,94332.06
2022-12-01T19:13:56.901Z,94331.75
2022-12-01T19:16:24.113Z,94339.25
2022-12-01T19:18:50.962Z,94333.03
2022-12-01T19:21:19.877Z,94334.25
2022-12-01T19:23:47.756Z,94336.59
2022-12-01T19:26:17.994Z,94339.44
2022-12-01T19:28:45.875Z,94336.75
2022-12-01T19:31:18.209Z,94340.50
2022-12-01T19:33:45.578Z,94345.16
2022-12-01T19:36:15.971Z,94348.44
2022-12-01T19:38:42.785Z,94342.97
2022-12-01T19:41:09.788Z,94343.63
2022-12-01T19:43:37.619Z,94349.25
2022-12-01T19:46:08.841Z,94345.19
2022-12-01T19:48:35.934Z,94351.44
2022-12-01T19:51:02.966Z,94351.13
2022-12-01T19:53:33.517Z,94348.63
2022-12-01T19:56:05.276Z,94355.94
2022-12-01T19:58:35.369Z,94353.13
2022-12-01T20:01:06.919Z,94351.91
2022-12-01T20:03:33.948Z,94353.44
2022-12-01T20:06:05.418Z,94351.44
2022-12-01T20:08:35.739Z,94353.75
2022-12-01T20:11:04.309Z,94354.88
2022-12-01T20:13:33.014Z,94353.13
2022-12-01T20:16:27.155Z,94360.59
2022-12-01T20:18:54.816Z,94364.53
2022-12-01T20:21:24.740Z,94361.25
2022-12-01T20:23:57.731Z,94365.97
2022-12-01T20:26:30.402Z,94362.66
2022-12-01T20:29:05.218Z,94364.69
2022-12-01T20:31:32.954Z,94371.41
2022-12-01T20:34:02.883Z,94372.78
2022-12-01T20:36:30.541Z,94364.22
2022-12-01T20:38:57.227Z,94372.19
2022-12-01T20:41:24.047Z,94373.25
2022-12-01T20:43:50.700Z,94373.09
2022-12-01T20:46:17.413Z,94388.63
2022-12-01T20:48:44.364Z,94389.00
2022-12-01T20:51:13.078Z,94386.94
2022-12-01T20:53:40.242Z,94394.22
2022-12-01T20:56:10.783Z,94398.69
2022-12-01T20:58:38.507Z,94396.78
2022-12-01T21:01:16.439Z,94396.88
2022-12-01T21:03:45.800Z,94396.41
2022-12-01T21:06:15.279Z,94398.19
2022-12-01T21:08:44.324Z,94394.69
2022-12-01T21:11:48.342Z,94402.44
2022-12-01T21:14:37.841Z,94412.06
2022-12-01T21:17:19.805Z,94409.00
2022-12-01T21:19:57.240Z,94412.78
2022-12-01T21:22:25.478Z,94412.06
2022-12-01T21:25:02.343Z,94415.94
2022-12-01T21:27:29.729Z,94412.78
2022-12-01T21:29:57.026Z,94419.88
2022-12-01T21:32:30.309Z,94426.66
2022-12-01T21:35:14.716Z,94423.91
2022-12-01T21:37:41.393Z,94424.91
2022-12-01T21:40:14.803Z,94426.59
2022-12-01T21:42:41.521Z,94427.63
2022-12-01T21:45:22.191Z,94427.53
2022-12-01T21:47:48.944Z,94432.66
2022-12-01T21:50:22.310Z,94432.34
2022-12-01T21:52:49.606Z,94419.38
2022-12-01T21:55:16.197Z,94432.97
2022-12-01T21:57:48.202Z,94432.56
2022-12-01T22:00:28.571Z,94437.75
2022-12-01T22:03:26.234Z,94431.28
2022-12-01T22:06:27.669Z,94431.13
2022-12-01T22:08:48.462Z,94428.16
2022-12-01T22:11:26.336Z,94432.19
2022-12-01T22:13:53.502Z,94430.25
2022-12-01T22:16:35.184Z,94433.59
2022-12-01T22:19:20.814Z,94431.88
2022-12-01T22:21:49.220Z,94433.59
2022-12-01T22:24:26.706Z,94429.44
2022-12-01T22:27:04.056Z,94424.75
2022-12-01T22:29:36.100Z,94433.88
2022-12-01T22:32:25.675Z,94429.53
2022-12-01T22:34:57.930Z,94425.38
2022-12-01T22:37:36.369Z,94425.25
2022-12-01T22:40:28.732Z,94428.22
2022-12-01T22:42:55.488Z,94422.84
2022-12-01T22:45:26.954Z,94422.19
2022-12-01T22:48:02.654Z,94418.91
2022-12-01T22:50:32.158Z,94416.28
2022-12-01T22:53:21.370Z,94423.28
2022-12-01T22:55:48.931Z,94418.94
2022-12-01T22:58:18.366Z,94416.22
2022-12-01T23:00:45.092Z,94414.44
2022-12-01T23:03:12.450Z,94414.78
2022-12-01T23:05:39.087Z,94406.47
2022-12-01T23:08:12.941Z,94412.06
2022-12-01T23:10:41.316Z,94414.16
2022-12-01T23:13:23.050Z,94410.75
2022-12-01T23:15:54.101Z,94407.94
2022-12-01T23:18:25.303Z,94410.28
2022-12-01T23:21:02.399Z,94412.03
2022-12-01T23:23:31.247Z,94409.81
2022-12-01T23:25:58.402Z,94406.47
2022-12-01T23:28:25.416Z,94414.78
2022-12-01T23:30:55.190Z,94406.25
2022-12-01T23:33:24.506Z,94409.06
2022-12-01T23:35:53.516Z,94404.50
2022-12-01T23:38:23.890Z,94409.97
2022-12-01T23:40:52.618Z,94396.72
2022-12-01T23:43:28.927Z,94403.44
2022-12-01T23:46:03.390Z,94401.22
2022-12-01T23:48:37.741Z,94417.38
2022-12-01T23:51:04.957Z,94406.91
2022-12-01T23:53:33.077Z,94410.16
2022-12-01T23:56:09.811Z,94409.25
2022-12-01T23:58:36.399Z,94411.72
